sensor_id;sensor_type;location;lat;lon;timestamp;P1;durP1;ratioP1;P2;durP2;ratioP2
55720;SDS011;41626;53.098;6.168;2023-02-24T00:01:57;9.02;;;1.55;;
55720;SDS011;41626;53.098;6.168;2023-02-24T00:04:26;8.75;;;2.22;;
55720;SDS011;41626;53.098;6.168;2023-02-24T00:06:53;10.60;;;2.10;;
55720;SDS011;41626;53.098;6.168;2023-02-24T00:09:20;16.10;;;2.92;;
55720;SDS011;41626;53.098;6.168;2023-02-24T00:12:03;8.65;;;2.00;;
55720;SDS011;41626;53.098;6.168;2023-02-24T00:14:32;7.45;;;1.40;;
55720;SDS011;41626;53.098;6.168;2023-02-24T00:17:00;12.05;;;3.65;;
55720;SDS011;41626;53.098;6.168;2023-02-24T00:19:27;11.63;;;2.28;;
55720;SDS011;41626;53.098;6.168;2023-02-24T00:21:56;11.13;;;2.30;;
55720;SDS011;41626;53.098;6.168;2023-02-24T00:24:24;12.10;;;3.35;;
55720;SDS011;41626;53.098;6.168;2023-02-24T00:26:54;10.93;;;3.13;;
55720;SDS011;41626;53.098;6.168;2023-02-24T00:29:21;9.20;;;2.13;;
55720;SDS011;41626;53.098;6.168;2023-02-24T00:31:54;9.57;;;2.38;;
55720;SDS011;41626;53.098;6.168;2023-02-24T00:34:25;8.63;;;1.80;;
55720;SDS011;41626;53.098;6.168;2023-02-24T00:36:51;9.00;;;1.73;;
55720;SDS011;41626;53.098;6.168;2023-02-24T00:39:17;7.87;;;1.67;;
55720;SDS011;41626;53.098;6.168;2023-02-24T00:41:43;23.07;;;2.90;;
55720;SDS011;41626;53.098;6.168;2023-02-24T00:44:11;11.43;;;2.27;;
55720;SDS011;41626;53.098;6.168;2023-02-24T00:46:42;11.75;;;2.03;;
55720;SDS011;41626;53.098;6.168;2023-02-24T00:49:13;8.10;;;1.55;;
55720;SDS011;41626;53.098;6.168;2023-02-24T00:51:46;6.40;;;1.95;;
55720;SDS011;41626;53.098;6.168;2023-02-24T00:54:13;8.60;;;1.92;;
55720;SDS011;41626;53.098;6.168;2023-02-24T00:56:44;8.63;;;2.17;;
55720;SDS011;41626;53.098;6.168;2023-02-24T00:59:12;11.10;;;2.45;;
55720;SDS011;41626;53.098;6.168;2023-02-24T01:01:39;8.83;;;2.27;;
55720;SDS011;41626;53.098;6.168;2023-02-24T01:04:06;10.13;;;2.50;;
55720;SDS011;41626;53.098;6.168;2023-02-24T01:06:37;6.90;;;1.40;;
55720;SDS011;41626;53.098;6.168;2023-02-24T01:09:08;7.75;;;2.00;;
55720;SDS011;41626;53.098;6.168;2023-02-24T01:11:44;6.88;;;1.20;;
55720;SDS011;41626;53.098;6.168;2023-02-24T01:14:31;7.28;;;1.90;;
55720;SDS011;41626;53.098;6.168;2023-02-24T01:16:58;9.83;;;2.07;;
55720;SDS011;41626;53.098;6.168;2023-02-24T01:19:25;7.80;;;1.85;;
55720;SDS011;41626;53.098;6.168;2023-02-24T01:21:58;8.43;;;2.00;;
55720;SDS011;41626;53.098;6.168;2023-02-24T01:24:25;8.13;;;2.00;;
55720;SDS011;41626;53.098;6.168;2023-02-24T01:26:51;6.50;;;1.37;;
55720;SDS011;41626;53.098;6.168;2023-02-24T01:29:17;7.60;;;2.30;;
55720;SDS011;41626;53.098;6.168;2023-02-24T01:31:46;8.93;;;1.95;;
55720;SDS011;41626;53.098;6.168;2023-02-24T01:34:14;9.30;;;1.83;;
55720;SDS011;41626;53.098;6.168;2023-02-24T01:36:40;8.30;;;1.85;;
55720;SDS011;41626;53.098;6.168;2023-02-24T01:39:12;6.43;;;1.80;;
55720;SDS011;41626;53.098;6.168;2023-02-24T01:41:39;5.53;;;1.60;;
55720;SDS011;41626;53.098;6.168;2023-02-24T01:46:41;8.30;;;1.85;;
55720;SDS011;41626;53.098;6.168;2023-02-24T01:49:20;8.05;;;1.45;;
55720;SDS011;41626;53.098;6.168;2023-02-24T01:51:46;12.75;;;1.75;;
55720;SDS011;41626;53.098;6.168;2023-02-24T01:54:19;11.75;;;2.08;;
55720;SDS011;41626;53.098;6.168;2023-02-24T01:56:48;8.48;;;1.50;;
55720;SDS011;41626;53.098;6.168;2023-02-24T01:59:15;6.18;;;1.60;;
55720;SDS011;41626;53.098;6.168;2023-02-24T02:01:42;8.77;;;1.45;;
55720;SDS011;41626;53.098;6.168;2023-02-24T02:04:20;7.38;;;1.52;;
55720;SDS011;41626;53.098;6.168;2023-02-24T02:06:55;10.77;;;2.30;;
55720;SDS011;41626;53.098;6.168;2023-02-24T02:09:22;9.18;;;1.60;;
55720;SDS011;41626;53.098;6.168;2023-02-24T02:11:49;6.43;;;1.60;;
55720;SDS011;41626;53.098;6.168;2023-02-24T02:14:15;13.10;;;1.95;;
55720;SDS011;41626;53.098;6.168;2023-02-24T02:16:55;5.97;;;2.08;;
55720;SDS011;41626;53.098;6.168;2023-02-24T02:22:20;7.10;;;1.67;;
55720;SDS011;41626;53.098;6.168;2023-02-24T02:24:59;8.05;;;1.48;;
55720;SDS011;41626;53.098;6.168;2023-02-24T02:41:55;12.10;;;2.08;;
55720;SDS011;41626;53.098;6.168;2023-02-24T02:44:53;11.23;;;1.63;;
55720;SDS011;41626;53.098;6.168;2023-02-24T02:48:02;12.55;;;2.10;;
55720;SDS011;41626;53.098;6.168;2023-02-24T02:50:40;7.30;;;1.53;;
55720;SDS011;41626;53.098;6.168;2023-02-24T02:53:11;9.13;;;1.30;;
55720;SDS011;41626;53.098;6.168;2023-02-24T02:55:54;8.35;;;1.98;;
55720;SDS011;41626;53.098;6.168;2023-02-24T02:58:25;11.55;;;2.30;;
55720;SDS011;41626;53.098;6.168;2023-02-24T03:00:55;12.60;;;1.77;;
55720;SDS011;41626;53.098;6.168;2023-02-24T03:03:38;10.13;;;2.00;;
55720;SDS011;41626;53.098;6.168;2023-02-24T03:08:36;6.07;;;1.30;;
55720;SDS011;41626;53.098;6.168;2023-02-24T03:11:08;10.77;;;2.00;;
55720;SDS011;41626;53.098;6.168;2023-02-24T03:13:39;10.23;;;1.80;;
55720;SDS011;41626;53.098;6.168;2023-02-24T03:16:08;8.00;;;1.50;;
55720;SDS011;41626;53.098;6.168;2023-02-24T03:18:37;7.22;;;1.73;;
55720;SDS011;41626;53.098;6.168;2023-02-24T03:21:10;15.33;;;2.13;;
55720;SDS011;41626;53.098;6.168;2023-02-24T03:23:44;8.82;;;2.15;;
55720;SDS011;41626;53.098;6.168;2023-02-24T03:31:43;13.40;;;1.83;;
55720;SDS011;41626;53.098;6.168;2023-02-24T03:36:44;5.32;;;1.83;;
55720;SDS011;41626;53.098;6.168;2023-02-24T03:39:11;9.13;;;2.05;;
55720;SDS011;41626;53.098;6.168;2023-02-24T03:41:49;8.52;;;1.55;;
55720;SDS011;41626;53.098;6.168;2023-02-24T03:44:28;6.45;;;1.23;;
55720;SDS011;41626;53.098;6.168;2023-02-24T03:46:54;5.70;;;1.20;;
55720;SDS011;41626;53.098;6.168;2023-02-24T03:49:20;10.17;;;1.97;;
55720;SDS011;41626;53.098;6.168;2023-02-24T03:52:07;9.73;;;1.85;;
55720;SDS011;41626;53.098;6.168;2023-02-24T04:00:43;12.63;;;1.60;;
55720;SDS011;41626;53.098;6.168;2023-02-24T04:03:37;7.90;;;1.70;;
55720;SDS011;41626;53.098;6.168;2023-02-24T04:09:05;7.18;;;1.30;;
55720;SDS011;41626;53.098;6.168;2023-02-24T04:11:43;8.98;;;2.60;;
55720;SDS011;41626;53.098;6.168;2023-02-24T04:14:17;12.80;;;3.33;;
55720;SDS011;41626;53.098;6.168;2023-02-24T04:16:57;16.20;;;1.70;;
55720;SDS011;41626;53.098;6.168;2023-02-24T04:19:57;8.75;;;1.80;;
55720;SDS011;41626;53.098;6.168;2023-02-24T04:22:33;9.43;;;1.70;;
55720;SDS011;41626;53.098;6.168;2023-02-24T04:25:00;11.60;;;2.25;;
55720;SDS011;41626;53.098;6.168;2023-02-24T04:27:29;8.77;;;1.75;;
55720;SDS011;41626;53.098;6.168;2023-02-24T04:29:55;5.73;;;1.47;;
55720;SDS011;41626;53.098;6.168;2023-02-24T04:32:26;10.17;;;1.70;;
55720;SDS011;41626;53.098;6.168;2023-02-24T04:35:00;9.77;;;2.45;;
55720;SDS011;41626;53.098;6.168;2023-02-24T04:37:30;9.33;;;2.17;;
55720;SDS011;41626;53.098;6.168;2023-02-24T04:39:59;13.90;;;2.35;;
55720;SDS011;41626;53.098;6.168;2023-02-24T04:42:25;8.65;;;1.40;;
55720;SDS011;41626;53.098;6.168;2023-02-24T04:44:51;10.98;;;2.00;;
55720;SDS011;41626;53.098;6.168;2023-02-24T04:47:18;6.05;;;1.30;;
55720;SDS011;41626;53.098;6.168;2023-02-24T04:49:44;9.60;;;1.48;;
55720;SDS011;41626;53.098;6.168;2023-02-24T04:52:09;12.15;;;2.17;;
55720;SDS011;41626;53.098;6.168;2023-02-24T04:54:35;7.13;;;2.38;;
55720;SDS011;41626;53.098;6.168;2023-02-24T04:57:02;9.57;;;1.98;;
55720;SDS011;41626;53.098;6.168;2023-02-24T04:59:31;6.57;;;1.95;;
55720;SDS011;41626;53.098;6.168;2023-02-24T05:01:56;11.85;;;2.90;;
55720;SDS011;41626;53.098;6.168;2023-02-24T05:04:25;11.23;;;1.60;;
55720;SDS011;41626;53.098;6.168;2023-02-24T05:06:54;8.32;;;1.77;;
55720;SDS011;41626;53.098;6.168;2023-02-24T05:09:21;10.05;;;1.98;;
55720;SDS011;41626;53.098;6.168;2023-02-24T05:11:48;10.90;;;2.10;;
55720;SDS011;41626;53.098;6.168;2023-02-24T05:14:15;7.90;;;2.30;;
55720;SDS011;41626;53.098;6.168;2023-02-24T05:16:45;8.23;;;2.30;;
55720;SDS011;41626;53.098;6.168;2023-02-24T05:19:13;11.70;;;2.08;;
55720;SDS011;41626;53.098;6.168;2023-02-24T05:21:59;7.88;;;1.60;;
55720;SDS011;41626;53.098;6.168;2023-02-24T05:24:27;9.75;;;2.30;;
55720;SDS011;41626;53.098;6.168;2023-02-24T05:26:54;10.83;;;2.47;;
55720;SDS011;41626;53.098;6.168;2023-02-24T05:29:24;11.43;;;2.20;;
55720;SDS011;41626;53.098;6.168;2023-02-24T05:31:53;16.77;;;3.30;;
55720;SDS011;41626;53.098;6.168;2023-02-24T05:34:23;12.00;;;2.63;;
55720;SDS011;41626;53.098;6.168;2023-02-24T05:36:49;10.27;;;1.97;;
55720;SDS011;41626;53.098;6.168;2023-02-24T05:39:15;12.07;;;2.10;;
55720;SDS011;41626;53.098;6.168;2023-02-24T05:41:43;10.60;;;2.40;;
55720;SDS011;41626;53.098;6.168;2023-02-24T05:44:27;13.45;;;3.10;;
55720;SDS011;41626;53.098;6.168;2023-02-24T05:46:56;9.65;;;2.08;;
55720;SDS011;41626;53.098;6.168;2023-02-24T05:49:26;12.60;;;2.37;;
55720;SDS011;41626;53.098;6.168;2023-02-24T05:51:58;10.45;;;2.50;;
55720;SDS011;41626;53.098;6.168;2023-02-24T05:54:30;13.23;;;1.92;;
55720;SDS011;41626;53.098;6.168;2023-02-24T05:57:03;11.63;;;2.60;;
55720;SDS011;41626;53.098;6.168;2023-02-24T05:59:36;16.60;;;3.15;;
55720;SDS011;41626;53.098;6.168;2023-02-24T06:02:04;11.00;;;2.50;;
55720;SDS011;41626;53.098;6.168;2023-02-24T06:04:33;10.95;;;2.55;;
55720;SDS011;41626;53.098;6.168;2023-02-24T06:07:22;12.23;;;3.28;;
55720;SDS011;41626;53.098;6.168;2023-02-24T06:09:54;19.13;;;2.72;;
55720;SDS011;41626;53.098;6.168;2023-02-24T06:12:23;12.38;;;3.58;;
55720;SDS011;41626;53.098;6.168;2023-02-24T06:14:51;14.82;;;3.20;;
55720;SDS011;41626;53.098;6.168;2023-02-24T06:17:17;17.02;;;3.50;;
55720;SDS011;41626;53.098;6.168;2023-02-24T06:19:44;13.00;;;2.85;;
55720;SDS011;41626;53.098;6.168;2023-02-24T06:22:14;16.00;;;4.47;;
55720;SDS011;41626;53.098;6.168;2023-02-24T06:24:43;19.25;;;3.75;;
55720;SDS011;41626;53.098;6.168;2023-02-24T06:27:13;17.52;;;3.78;;
55720;SDS011;41626;53.098;6.168;2023-02-24T06:29:47;16.70;;;4.37;;
55720;SDS011;41626;53.098;6.168;2023-02-24T06:32:14;17.40;;;4.80;;
55720;SDS011;41626;53.098;6.168;2023-02-24T06:34:41;17.15;;;4.05;;
55720;SDS011;41626;53.098;6.168;2023-02-24T06:37:07;20.00;;;4.90;;
55720;SDS011;41626;53.098;6.168;2023-02-24T06:39:36;16.48;;;5.57;;
55720;SDS011;41626;53.098;6.168;2023-02-24T06:42:02;15.47;;;4.17;;
55720;SDS011;41626;53.098;6.168;2023-02-24T06:44:29;22.65;;;5.20;;
55720;SDS011;41626;53.098;6.168;2023-02-24T06:46:55;19.95;;;5.55;;
55720;SDS011;41626;53.098;6.168;2023-02-24T06:49:22;21.35;;;5.95;;
55720;SDS011;41626;53.098;6.168;2023-02-24T06:51:48;18.65;;;4.55;;
55720;SDS011;41626;53.098;6.168;2023-02-24T06:54:14;19.23;;;4.53;;
55720;SDS011;41626;53.098;6.168;2023-02-24T06:56:40;15.93;;;4.60;;
55720;SDS011;41626;53.098;6.168;2023-02-24T06:59:06;15.35;;;3.88;;
55720;SDS011;41626;53.098;6.168;2023-02-24T07:01:40;15.47;;;3.90;;
55720;SDS011;41626;53.098;6.168;2023-02-24T07:04:11;21.02;;;6.05;;
55720;SDS011;41626;53.098;6.168;2023-02-24T07:06:37;18.67;;;4.33;;
55720;SDS011;41626;53.098;6.168;2023-02-24T07:09:11;21.58;;;4.65;;
55720;SDS011;41626;53.098;6.168;2023-02-24T07:11:43;16.43;;;4.97;;
55720;SDS011;41626;53.098;6.168;2023-02-24T07:14:12;18.83;;;4.95;;
55720;SDS011;41626;53.098;6.168;2023-02-24T07:16:39;19.52;;;4.38;;
55720;SDS011;41626;53.098;6.168;2023-02-24T07:19:08;19.27;;;5.28;;
55720;SDS011;41626;53.098;6.168;2023-02-24T07:21:40;21.10;;;5.10;;
55720;SDS011;41626;53.098;6.168;2023-02-24T07:24:20;17.60;;;3.92;;
55720;SDS011;41626;53.098;6.168;2023-02-24T07:26:55;15.93;;;4.30;;
55720;SDS011;41626;53.098;6.168;2023-02-24T07:29:25;19.15;;;4.68;;
55720;SDS011;41626;53.098;6.168;2023-02-24T07:31:52;19.70;;;4.82;;
55720;SDS011;41626;53.098;6.168;2023-02-24T07:34:22;20.57;;;4.57;;
55720;SDS011;41626;53.098;6.168;2023-02-24T07:36:50;23.73;;;5.47;;
55720;SDS011;41626;53.098;6.168;2023-02-24T07:39:16;21.00;;;4.22;;
55720;SDS011;41626;53.098;6.168;2023-02-24T07:41:43;29.92;;;5.40;;
55720;SDS011;41626;53.098;6.168;2023-02-24T07:44:09;19.20;;;4.70;;
55720;SDS011;41626;53.098;6.168;2023-02-24T07:46:36;23.03;;;5.23;;
55720;SDS011;41626;53.098;6.168;2023-02-24T07:49:02;24.20;;;4.47;;
55720;SDS011;41626;53.098;6.168;2023-02-24T07:51:28;22.80;;;4.03;;
55720;SDS011;41626;53.098;6.168;2023-02-24T07:53:56;18.08;;;3.90;;
55720;SDS011;41626;53.098;6.168;2023-02-24T07:56:27;21.37;;;4.30;;
55720;SDS011;41626;53.098;6.168;2023-02-24T07:59:02;24.90;;;5.68;;
55720;SDS011;41626;53.098;6.168;2023-02-24T08:01:33;26.30;;;6.00;;
55720;SDS011;41626;53.098;6.168;2023-02-24T08:04:04;19.02;;;5.25;;
55720;SDS011;41626;53.098;6.168;2023-02-24T08:06:39;22.38;;;5.07;;
55720;SDS011;41626;53.098;6.168;2023-02-24T08:09:13;22.50;;;6.65;;
55720;SDS011;41626;53.098;6.168;2023-02-24T08:14:18;21.77;;;5.88;;
55720;SDS011;41626;53.098;6.168;2023-02-24T08:16:56;20.83;;;5.30;;
55720;SDS011;41626;53.098;6.168;2023-02-24T08:19:24;22.70;;;5.23;;
55720;SDS011;41626;53.098;6.168;2023-02-24T08:22:03;19.38;;;4.47;;
55720;SDS011;41626;53.098;6.168;2023-02-24T08:25:17;16.63;;;4.38;;
55720;SDS011;41626;53.098;6.168;2023-02-24T08:27:42;16.43;;;5.10;;
55720;SDS011;41626;53.098;6.168;2023-02-24T08:30:11;18.95;;;4.55;;
55720;SDS011;41626;53.098;6.168;2023-02-24T08:32:53;17.67;;;5.13;;
55720;SDS011;41626;53.098;6.168;2023-02-24T08:35:31;14.68;;;4.55;;
55720;SDS011;41626;53.098;6.168;2023-02-24T08:38:03;16.58;;;4.93;;
55720;SDS011;41626;53.098;6.168;2023-02-24T08:40:30;16.33;;;5.43;;
55720;SDS011;41626;53.098;6.168;2023-02-24T08:45:59;18.77;;;5.70;;
55720;SDS011;41626;53.098;6.168;2023-02-24T08:48:43;13.07;;;4.30;;
55720;SDS011;41626;53.098;6.168;2023-02-24T08:53:46;16.40;;;4.28;;
55720;SDS011;41626;53.098;6.168;2023-02-24T08:56:17;10.32;;;4.25;;
55720;SDS011;41626;53.098;6.168;2023-02-24T08:58:48;12.68;;;4.13;;
55720;SDS011;41626;53.098;6.168;2023-02-24T09:01:22;15.07;;;4.32;;
55720;SDS011;41626;53.098;6.168;2023-02-24T09:03:58;13.07;;;5.38;;
55720;SDS011;41626;53.098;6.168;2023-02-24T09:09:08;10.10;;;4.05;;
55720;SDS011;41626;53.098;6.168;2023-02-24T09:11:47;14.52;;;4.63;;
55720;SDS011;41626;53.098;6.168;2023-02-24T09:14:14;15.98;;;5.60;;
55720;SDS011;41626;53.098;6.168;2023-02-24T09:16:43;11.75;;;4.68;;
55720;SDS011;41626;53.098;6.168;2023-02-24T09:19:26;10.02;;;4.63;;
55720;SDS011;41626;53.098;6.168;2023-02-24T09:22:10;18.92;;;5.72;;
55720;SDS011;41626;53.098;6.168;2023-02-24T09:24:39;15.07;;;6.22;;
55720;SDS011;41626;53.098;6.168;2023-02-24T09:27:06;12.57;;;5.60;;
55720;SDS011;41626;53.098;6.168;2023-02-24T09:29:32;16.70;;;6.55;;
55720;SDS011;41626;53.098;6.168;2023-02-24T09:32:06;12.50;;;6.17;;
55720;SDS011;41626;53.098;6.168;2023-02-24T09:34:37;20.17;;;6.43;;
55720;SDS011;41626;53.098;6.168;2023-02-24T09:37:10;20.35;;;6.95;;
55720;SDS011;41626;53.098;6.168;2023-02-24T09:39:50;19.40;;;5.80;;
55720;SDS011;41626;53.098;6.168;2023-02-24T09:42:20;18.52;;;6.10;;
55720;SDS011;41626;53.098;6.168;2023-02-24T09:44:53;22.25;;;5.00;;
55720;SDS011;41626;53.098;6.168;2023-02-24T09:50:08;19.90;;;4.82;;
55720;SDS011;41626;53.098;6.168;2023-02-24T09:52:48;19.60;;;4.13;;
55720;SDS011;41626;53.098;6.168;2023-02-24T10:06:39;24.52;;;4.95;;
55720;SDS011;41626;53.098;6.168;2023-02-24T10:17:23;27.23;;;7.22;;
55720;SDS011;41626;53.098;6.168;2023-02-24T10:22:37;30.58;;;6.63;;
55720;SDS011;41626;53.098;6.168;2023-02-24T10:33:54;30.90;;;6.50;;
55720;SDS011;41626;53.098;6.168;2023-02-24T10:36:33;36.60;;;7.37;;
55720;SDS011;41626;53.098;6.168;2023-02-24T10:41:54;31.02;;;7.63;;
55720;SDS011;41626;53.098;6.168;2023-02-24T10:44:25;33.83;;;7.15;;
55720;SDS011;41626;53.098;6.168;2023-02-24T10:47:01;23.63;;;5.95;;
55720;SDS011;41626;53.098;6.168;2023-02-24T10:55:02;34.20;;;7.78;;
55720;SDS011;41626;53.098;6.168;2023-02-24T10:57:40;32.28;;;7.43;;
55720;SDS011;41626;53.098;6.168;2023-02-24T11:00:15;26.60;;;6.03;;
55720;SDS011;41626;53.098;6.168;2023-02-24T11:02:50;36.75;;;7.45;;
55720;SDS011;41626;53.098;6.168;2023-02-24T11:05:38;35.92;;;7.40;;
55720;SDS011;41626;53.098;6.168;2023-02-24T11:08:29;37.35;;;7.25;;
55720;SDS011;41626;53.098;6.168;2023-02-24T11:11:15;30.73;;;7.13;;
55720;SDS011;41626;53.098;6.168;2023-02-24T11:13:50;30.57;;;7.03;;
55720;SDS011;41626;53.098;6.168;2023-02-24T11:16:50;31.50;;;7.15;;
55720;SDS011;41626;53.098;6.168;2023-02-24T11:19:40;36.58;;;8.48;;
55720;SDS011;41626;53.098;6.168;2023-02-24T11:22:08;34.40;;;8.00;;
55720;SDS011;41626;53.098;6.168;2023-02-24T11:24:40;27.50;;;6.23;;
55720;SDS011;41626;53.098;6.168;2023-02-24T11:27:09;39.03;;;7.97;;
55720;SDS011;41626;53.098;6.168;2023-02-24T11:29:45;31.83;;;6.70;;
55720;SDS011;41626;53.098;6.168;2023-02-24T11:35:24;34.45;;;7.47;;
55720;SDS011;41626;53.098;6.168;2023-02-24T11:40:43;28.30;;;6.43;;
55720;SDS011;41626;53.098;6.168;2023-02-24T11:43:14;30.30;;;6.55;;
55720;SDS011;41626;53.098;6.168;2023-02-24T11:45:57;26.73;;;6.03;;
55720;SDS011;41626;53.098;6.168;2023-02-24T11:48:34;31.90;;;7.50;;
55720;SDS011;41626;53.098;6.168;2023-02-24T11:51:18;27.17;;;6.07;;
55720;SDS011;41626;53.098;6.168;2023-02-24T11:53:55;26.53;;;6.23;;
55720;SDS011;41626;53.098;6.168;2023-02-24T11:56:27;23.52;;;5.22;;
55720;SDS011;41626;53.098;6.168;2023-02-24T11:59:14;17.17;;;5.13;;
55720;SDS011;41626;53.098;6.168;2023-02-24T12:04:36;13.40;;;3.08;;
55720;SDS011;41626;53.098;6.168;2023-02-24T12:07:28;14.15;;;2.53;;
55720;SDS011;41626;53.098;6.168;2023-02-24T12:12:28;19.17;;;4.82;;
55720;SDS011;41626;53.098;6.168;2023-02-24T12:15:18;15.85;;;3.42;;
55720;SDS011;41626;53.098;6.168;2023-02-24T12:23:11;27.92;;;5.15;;
55720;SDS011;41626;53.098;6.168;2023-02-24T12:25:53;21.08;;;4.80;;
55720;SDS011;41626;53.098;6.168;2023-02-24T12:31:35;18.30;;;4.33;;
55720;SDS011;41626;53.098;6.168;2023-02-24T12:34:20;22.95;;;4.03;;
55720;SDS011;41626;53.098;6.168;2023-02-24T12:42:30;23.60;;;5.15;;
55720;SDS011;41626;53.098;6.168;2023-02-24T12:50:47;24.70;;;5.27;;
55720;SDS011;41626;53.098;6.168;2023-02-24T12:53:34;21.55;;;5.68;;
55720;SDS011;41626;53.098;6.168;2023-02-24T12:58:50;15.68;;;3.63;;
55720;SDS011;41626;53.098;6.168;2023-02-24T13:01:30;8.57;;;1.88;;
55720;SDS011;41626;53.098;6.168;2023-02-24T13:09:33;12.55;;;1.90;;
55720;SDS011;41626;53.098;6.168;2023-02-24T13:12:19;9.65;;;2.00;;
55720;SDS011;41626;53.098;6.168;2023-02-24T13:14:54;10.82;;;1.70;;
55720;SDS011;41626;53.098;6.168;2023-02-24T13:17:21;10.55;;;2.17;;
55720;SDS011;41626;53.098;6.168;2023-02-24T13:19:50;8.82;;;1.92;;
55720;SDS011;41626;53.098;6.168;2023-02-24T13:22:21;11.63;;;2.47;;
55720;SDS011;41626;53.098;6.168;2023-02-24T13:24:58;9.80;;;1.73;;
55720;SDS011;41626;53.098;6.168;2023-02-24T13:27:32;13.52;;;2.97;;
55720;SDS011;41626;53.098;6.168;2023-02-24T13:30:23;10.88;;;2.55;;
55720;SDS011;41626;53.098;6.168;2023-02-24T13:32:58;8.80;;;1.70;;
55720;SDS011;41626;53.098;6.168;2023-02-24T13:37:49;7.75;;;1.70;;
55720;SDS011;41626;53.098;6.168;2023-02-24T13:45:27;12.18;;;2.58;;
55720;SDS011;41626;53.098;6.168;2023-02-24T13:54:22;14.80;;;3.30;;
55720;SDS011;41626;53.098;6.168;2023-02-24T13:56:39;11.45;;;2.67;;
55720;SDS011;41626;53.098;6.168;2023-02-24T14:04:48;17.45;;;3.38;;
55720;SDS011;41626;53.098;6.168;2023-02-24T14:07:35;14.82;;;3.22;;
55720;SDS011;41626;53.098;6.168;2023-02-24T14:10:03;16.50;;;3.30;;
55720;SDS011;41626;53.098;6.168;2023-02-24T14:12:38;18.92;;;3.50;;
55720;SDS011;41626;53.098;6.168;2023-02-24T14:15:26;11.63;;;2.53;;
55720;SDS011;41626;53.098;6.168;2023-02-24T14:17:56;7.15;;;2.33;;
55720;SDS011;41626;53.098;6.168;2023-02-24T14:20:25;8.10;;;1.55;;
55720;SDS011;41626;53.098;6.168;2023-02-24T14:22:53;4.72;;;1.70;;
55720;SDS011;41626;53.098;6.168;2023-02-24T14:25:23;7.60;;;1.10;;
55720;SDS011;41626;53.098;6.168;2023-02-24T14:28:00;4.97;;;1.00;;
55720;SDS011;41626;53.098;6.168;2023-02-24T14:32:51;4.07;;;0.70;;
55720;SDS011;41626;53.098;6.168;2023-02-24T14:37:55;6.05;;;1.30;;
55720;SDS011;41626;53.098;6.168;2023-02-24T14:40:21;6.40;;;1.83;;
55720;SDS011;41626;53.098;6.168;2023-02-24T14:42:49;9.90;;;2.40;;
55720;SDS011;41626;53.098;6.168;2023-02-24T14:45:17;10.30;;;1.97;;
55720;SDS011;41626;53.098;6.168;2023-02-24T14:47:45;11.65;;;2.10;;
55720;SDS011;41626;53.098;6.168;2023-02-24T14:50:14;13.60;;;2.33;;
55720;SDS011;41626;53.098;6.168;2023-02-24T14:52:47;11.05;;;2.13;;
55720;SDS011;41626;53.098;6.168;2023-02-24T14:55:28;16.50;;;3.83;;
55720;SDS011;41626;53.098;6.168;2023-02-24T14:58:35;16.73;;;3.72;;
55720;SDS011;41626;53.098;6.168;2023-02-24T15:01:04;15.57;;;3.35;;
55720;SDS011;41626;53.098;6.168;2023-02-24T15:03:46;17.45;;;3.58;;
55720;SDS011;41626;53.098;6.168;2023-02-24T15:06:18;10.27;;;2.20;;
55720;SDS011;41626;53.098;6.168;2023-02-24T15:08:54;15.75;;;3.30;;
55720;SDS011;41626;53.098;6.168;2023-02-24T15:11:26;16.42;;;3.38;;
55720;SDS011;41626;53.098;6.168;2023-02-24T15:14:01;15.55;;;2.45;;
55720;SDS011;41626;53.098;6.168;2023-02-24T15:16:35;12.40;;;3.28;;
55720;SDS011;41626;53.098;6.168;2023-02-24T15:19:03;16.00;;;3.92;;
55720;SDS011;41626;53.098;6.168;2023-02-24T15:21:45;12.82;;;2.70;;
55720;SDS011;41626;53.098;6.168;2023-02-24T15:24:24;15.25;;;3.47;;
55720;SDS011;41626;53.098;6.168;2023-02-24T15:29:37;19.17;;;4.00;;
55720;SDS011;41626;53.098;6.168;2023-02-24T15:32:03;20.80;;;4.17;;
55720;SDS011;41626;53.098;6.168;2023-02-24T15:34:35;19.75;;;4.70;;
55720;SDS011;41626;53.098;6.168;2023-02-24T15:37:11;27.33;;;5.20;;
55720;SDS011;41626;53.098;6.168;2023-02-24T15:39:41;24.63;;;4.88;;
55720;SDS011;41626;53.098;6.168;2023-02-24T15:42:12;23.48;;;4.63;;
55720;SDS011;41626;53.098;6.168;2023-02-24T15:45:05;18.23;;;4.63;;
55720;SDS011;41626;53.098;6.168;2023-02-24T15:47:52;12.88;;;3.17;;
55720;SDS011;41626;53.098;6.168;2023-02-24T15:50:19;22.30;;;5.15;;
55720;SDS011;41626;53.098;6.168;2023-02-24T15:52:45;14.05;;;2.90;;
55720;SDS011;41626;53.098;6.168;2023-02-24T15:55:15;16.65;;;3.70;;
55720;SDS011;41626;53.098;6.168;2023-02-24T15:57:43;18.27;;;3.55;;
55720;SDS011;41626;53.098;6.168;2023-02-24T16:00:19;20.10;;;4.07;;
55720;SDS011;41626;53.098;6.168;2023-02-24T16:02:50;19.58;;;4.13;;
55720;SDS011;41626;53.098;6.168;2023-02-24T16:05:15;17.85;;;4.70;;
55720;SDS011;41626;53.098;6.168;2023-02-24T16:07:44;22.13;;;4.72;;
55720;SDS011;41626;53.098;6.168;2023-02-24T16:10:24;24.27;;;5.38;;
55720;SDS011;41626;53.098;6.168;2023-02-24T16:12:53;18.63;;;4.83;;
55720;SDS011;41626;53.098;6.168;2023-02-24T16:15:25;18.05;;;4.05;;
55720;SDS011;41626;53.098;6.168;2023-02-24T16:17:53;18.08;;;4.70;;
55720;SDS011;41626;53.098;6.168;2023-02-24T16:20:24;18.67;;;3.83;;
55720;SDS011;41626;53.098;6.168;2023-02-24T16:22:52;21.30;;;5.53;;
55720;SDS011;41626;53.098;6.168;2023-02-24T16:25:19;17.10;;;4.07;;
55720;SDS011;41626;53.098;6.168;2023-02-24T16:27:44;17.90;;;4.05;;
55720;SDS011;41626;53.098;6.168;2023-02-24T16:30:14;16.85;;;3.85;;
55720;SDS011;41626;53.098;6.168;2023-02-24T16:32:43;12.15;;;2.55;;
55720;SDS011;41626;53.098;6.168;2023-02-24T16:35:10;15.55;;;2.90;;
55720;SDS011;41626;53.098;6.168;2023-02-24T16:37:37;13.68;;;3.40;;
55720;SDS011;41626;53.098;6.168;2023-02-24T16:40:05;18.20;;;3.63;;
55720;SDS011;41626;53.098;6.168;2023-02-24T16:42:47;15.27;;;3.47;;
55720;SDS011;41626;53.098;6.168;2023-02-24T16:45:14;19.87;;;3.93;;
55720;SDS011;41626;53.098;6.168;2023-02-24T16:47:40;24.77;;;5.75;;
55720;SDS011;41626;53.098;6.168;2023-02-24T16:50:08;18.17;;;4.88;;
55720;SDS011;41626;53.098;6.168;2023-02-24T16:52:41;20.73;;;5.30;;
55720;SDS011;41626;53.098;6.168;2023-02-24T16:55:09;23.85;;;4.72;;
55720;SDS011;41626;53.098;6.168;2023-02-24T16:57:38;23.58;;;4.85;;
55720;SDS011;41626;53.098;6.168;2023-02-24T17:00:04;28.10;;;6.90;;
55720;SDS011;41626;53.098;6.168;2023-02-24T17:02:30;24.38;;;6.38;;
55720;SDS011;41626;53.098;6.168;2023-02-24T17:04:56;21.52;;;4.97;;
55720;SDS011;41626;53.098;6.168;2023-02-24T17:07:21;22.67;;;5.30;;
55720;SDS011;41626;53.098;6.168;2023-02-24T17:09:48;20.35;;;5.20;;
55720;SDS011;41626;53.098;6.168;2023-02-24T17:12:14;30.35;;;5.82;;
55720;SDS011;41626;53.098;6.168;2023-02-24T17:14:43;25.77;;;5.28;;
55720;SDS011;41626;53.098;6.168;2023-02-24T17:17:09;26.45;;;6.35;;
55720;SDS011;41626;53.098;6.168;2023-02-24T17:19:35;22.45;;;5.38;;
55720;SDS011;41626;53.098;6.168;2023-02-24T17:22:01;25.15;;;6.63;;
55720;SDS011;41626;53.098;6.168;2023-02-24T17:24:28;24.80;;;7.55;;
55720;SDS011;41626;53.098;6.168;2023-02-24T17:26:54;22.73;;;4.90;;
55720;SDS011;41626;53.098;6.168;2023-02-24T17:29:24;23.10;;;5.72;;
55720;SDS011;41626;53.098;6.168;2023-02-24T17:31:50;16.55;;;4.22;;
55720;SDS011;41626;53.098;6.168;2023-02-24T17:34:16;20.10;;;4.70;;
55720;SDS011;41626;53.098;6.168;2023-02-24T17:36:42;20.92;;;5.28;;
55720;SDS011;41626;53.098;6.168;2023-02-24T17:39:07;19.80;;;4.83;;
55720;SDS011;41626;53.098;6.168;2023-02-24T17:41:33;18.23;;;3.92;;
55720;SDS011;41626;53.098;6.168;2023-02-24T17:43:59;18.45;;;4.97;;
55720;SDS011;41626;53.098;6.168;2023-02-24T17:46:25;20.27;;;4.83;;